Time;durP1;ratioP1;P1;durP2;ratioP2;P2;SDS_P1;SDS_P2;PMS_P1;PMS_P2;Temp;Humidity;BMP_temperature;BMP_pressure;BME280_temperature;BME280_humidity;BME280_pressure;Samples;Min_cycle;Max_cycle;Signal;HPM_P1;HPM_P2
2022/07/06 00:00:41;;;;;;;5.03;2.00;;;;;;;22.76;41.90;102521.13;5016725;28;20271;-70
2022/07/06 00:03:07;;;;;;;3.63;2.07;;;;;;;22.77;42.51;102512.22;5015516;28;20061;-70
2022/07/06 00:05:32;;;;;;;4.50;1.90;;;;;;;22.77;42.31;102519.34;5016708;28;20838;-70
2022/07/06 00:07:57;;;;;;;3.70;1.83;;;;;;;22.76;42.33;102517.63;5015744;28;20385;-71
2022/07/06 00:10:23;;;;;;;3.63;2.00;;;;;;;22.74;42.31;102515.09;5016448;28;20018;-70
2022/07/06 00:12:48;;;;;;;3.30;1.95;;;;;;;22.74;42.13;102515.09;5016459;28;20332;-70
2022/07/06 00:15:13;;;;;;;3.47;1.90;;;;;;;22.73;42.05;102513.41;5015300;28;20025;-70
2022/07/06 00:17:38;;;;;;;4.60;2.07;;;;;;;22.73;42.40;102512.56;5016418;28;20026;-70
2022/07/06 00:20:04;;;;;;;3.28;1.70;;;;;;;22.73;42.25;102520.53;5015900;28;20290;-70
2022/07/06 00:22:30;;;;;;;3.42;1.73;;;;;;;22.70;41.82;102516.31;5015548;28;20105;-71
2022/07/06 00:24:55;;;;;;;3.90;1.90;;;;;;;22.72;42.38;102526.81;5016203;28;20033;-70
2022/07/06 00:27:20;;;;;;;3.70;1.83;;;;;;;22.70;42.35;102528.72;5016453;28;20815;-70
2022/07/06 00:29:45;;;;;;;3.73;2.00;;;;;;;22.71;42.48;102525.13;5015412;28;20271;-70
2022/07/06 00:32:11;;;;;;;3.00;1.60;;;;;;;22.71;42.06;102528.63;5015934;28;20286;-70
2022/07/06 00:34:39;;;;;;;4.55;1.80;;;;;;;22.70;42.36;102523.41;5016001;28;20805;-70
2022/07/06 00:37:04;;;;;;;3.10;1.80;;;;;;;22.67;42.27;102519.19;5014969;28;20096;-70
2022/07/06 00:39:29;;;;;;;5.25;2.10;;;;;;;22.67;42.14;102526.28;5016151;28;20025;-70
2022/07/06 00:41:56;;;;;;;3.93;2.17;;;;;;;22.66;42.33;102514.81;5015589;28;20073;-70
2022/07/06 00:44:21;;;;;;;3.35;1.95;;;;;;;22.67;42.27;102521.84;5015124;28;20658;-70
2022/07/06 00:46:46;;;;;;;3.47;1.70;;;;;;;22.67;42.23;102520.97;5015947;28;20032;-70
2022/07/06 00:50:13;;;;;;;3.60;1.90;;;;;;;22.64;42.13;102517.59;5014845;28;20503;-70
2022/07/06 00:51:58;;;;;;;3.10;1.75;;;;;;;22.63;42.03;102523.88;5014450;28;20743;-70
2022/07/06 00:54:23;;;;;;;4.18;2.15;;;;;;;22.63;42.13;102523.88;5015598;28;20037;-70
2022/07/06 00:56:48;;;;;;;3.55;1.80;;;;;;;22.62;41.85;102523.97;5015811;28;20025;-71
2022/07/06 00:59:14;;;;;;;4.05;2.13;;;;;;;22.61;42.18;102524.97;5014594;28;20504;-70
2022/07/06 01:01:39;;;;;;;4.10;2.08;;;;;;;22.60;42.02;102518.78;5015364;28;20061;-70
2022/07/06 01:04:04;;;;;;;5.47;2.10;;;;;;;22.59;42.25;102518.91;5015214;28;20470;-70
2022/07/06 01:06:29;;;;;;;3.70;2.17;;;;;;;22.58;41.92;102519.88;5014883;28;20267;-70
2022/07/06 01:08:55;;;;;;;3.70;2.07;;;;;;;22.57;42.00;102519.03;5015148;28;20267;-70
2022/07/06 01:11:20;;;;;;;3.72;1.80;;;;;;;22.57;41.89;102519.03;5014762;28;20273;-70
2022/07/06 01:13:47;;;;;;;5.03;2.00;;;;;;;22.57;42.17;102519.03;5015539;28;20101;-70
2022/07/06 01:16:12;;;;;;;3.78;2.15;;;;;;;22.57;42.10;102515.50;5014932;28;20030;-69
2022/07/06 01:18:38;;;;;;;4.00;2.15;;;;;;;22.55;42.05;102512.13;5014722;28;20052;-69
2022/07/06 01:21:11;;;;;;;3.88;1.98;;;;;;;22.53;41.97;102506.91;5014869;28;20025;-70
2022/07/06 01:23:44;;;;;;;4.43;1.90;;;;;;;22.53;41.77;102517.56;5015203;28;20018;-69
2022/07/06 01:26:12;;;;;;;5.37;2.30;;;;;;;22.54;41.94;102510.41;5014144;28;20485;-69
2022/07/06 01:28:37;;;;;;;4.18;2.20;;;;;;;22.53;41.80;102511.41;5015003;28;20025;-70
2022/07/06 01:31:02;;;;;;;3.97;2.10;;;;;;;22.50;41.97;102509.81;5014617;28;20029;-69
2022/07/06 01:33:28;;;;;;;4.10;2.40;;;;;;;22.51;41.99;102516.81;5014491;28;20080;-69
2022/07/06 01:35:53;;;;;;;4.25;2.03;;;;;;;22.50;42.20;102514.28;5014512;28;20050;-69
2022/07/06 01:38:18;;;;;;;4.13;2.08;;;;;;;22.47;42.01;102512.69;5015255;28;20021;-70
2022/07/06 01:40:44;;;;;;;4.00;2.20;;;;;;;22.48;42.05;102516.19;5014134;28;20477;-69
2022/07/06 01:43:09;;;;;;;3.40;2.00;;;;;;;22.47;42.20;102518.00;5014633;28;20271;-69
2022/07/06 01:45:34;;;;;;;3.77;2.20;;;;;;;22.47;41.75;102515.34;5014612;28;20376;-69
2022/07/06 01:47:59;;;;;;;4.38;2.10;;;;;;;22.44;41.87;102519.06;5013612;28;20272;-69
2022/07/06 01:50:25;;;;;;;4.20;1.93;;;;;;;22.45;41.77;102511.97;5014807;28;20037;-69
2022/07/06 01:52:50;;;;;;;3.73;1.90;;;;;;;22.43;41.81;102511.19;5014379;28;20761;-69
2022/07/06 01:55:15;;;;;;;4.22;2.15;;;;;;;22.44;41.94;102515.56;5013909;28;20279;-70
2022/07/06 01:57:41;;;;;;;4.10;2.33;;;;;;;22.42;41.71;102507.72;5014448;28;20445;-70
2022/07/06 02:00:09;;;;;;;3.90;1.90;;;;;;;22.42;41.94;102509.53;5013019;28;20286;-69
2022/07/06 02:02:34;;;;;;;5.47;2.15;;;;;;;22.42;41.90;102513.03;5013928;28;20052;-69
2022/07/06 02:04:59;;;;;;;3.83;2.20;;;;;;;22.39;41.55;102513.25;5014259;28;20481;-69
2022/07/06 02:07:24;;;;;;;3.50;2.27;;;;;;;22.39;41.61;102513.25;5014125;28;20038;-70
2022/07/06 02:09:50;;;;;;;3.50;2.00;;;;;;;22.39;41.64;102520.38;5013903;28;20770;-69
2022/07/06 02:12:15;;;;;;;4.27;2.43;;;;;;;22.38;41.73;102516.00;5014343;28;20275;-69
2022/07/06 02:14:40;;;;;;;5.90;2.30;;;;;;;22.38;41.74;102522.19;5013504;28;20321;-70
2022/07/06 02:17:05;;;;;;;4.37;2.40;;;;;;;22.36;41.80;102518.78;5014126;28;20333;-70
2022/07/06 02:19:31;;;;;;;3.92;2.30;;;;;;;22.36;41.86;102516.13;5014242;28;20321;-70
2022/07/06 02:21:56;;;;;;;4.20;2.25;;;;;;;22.35;42.08;102516.25;5012968;28;20034;-70
2022/07/06 02:24:21;;;;;;;3.53;1.97;;;;;;;22.34;41.83;102518.06;5014185;28;20029;-70
2022/07/06 02:26:47;;;;;;;4.05;2.17;;;;;;;22.34;41.82;102518.06;5014026;28;20045;-70
2022/07/06 02:29:12;;;;;;;4.40;2.47;;;;;;;22.33;41.62;102519.00;5012887;28;20113;-69
2022/07/06 02:31:38;;;;;;;4.50;2.45;;;;;;;22.32;41.89;102514.69;5014115;28;20029;-69
2022/07/06 02:34:03;;;;;;;3.78;2.15;;;;;;;22.32;41.96;102516.47;5013755;28;20021;-70
2022/07/06 02:36:28;;;;;;;4.75;2.38;;;;;;;22.31;42.16;102512.97;5012902;28;20053;-70
2022/07/06 02:38:53;;;;;;;4.23;2.40;;;;;;;22.30;41.71;102507.75;5013526;28;20108;-70
2022/07/06 02:41:19;;;;;;;3.67;2.00;;;;;;;22.29;41.78;102506.91;5013830;28;20747;-70
2022/07/06 02:43:44;;;;;;;4.03;2.40;;;;;;;22.28;41.93;102513.16;5013037;28;20605;-70
2022/07/06 02:46:09;;;;;;;3.85;2.35;;;;;;;22.27;41.76;102509.66;5013318;28;20306;-70
2022/07/06 02:48:35;;;;;;;4.10;2.20;;;;;;;22.27;42.10;102509.66;5013685;28;20030;-70
2022/07/06 02:51:00;;;;;;;4.03;2.33;;;;;;;22.26;41.67;102501.81;5012733;28;20307;-70
2022/07/06 02:53:25;;;;;;;4.03;2.20;;;;;;;22.27;41.34;102511.44;5013643;28;20112;-70
2022/07/06 02:55:50;;;;;;;4.33;2.57;;;;;;;22.23;41.71;102508.19;5013189;28;20328;-70
2022/07/06 02:58:16;;;;;;;3.50;2.40;;;;;;;22.25;41.79;102516.03;5012610;28;20271;-69
2022/07/06 03:00:41;;;;;;;6.22;2.53;;;;;;;22.24;41.86;102525.81;5013713;28;20030;-69
2022/07/06 03:03:07;;;;;;;4.43;2.40;;;;;;;22.23;42.21;102525.94;5013246;28;20359;-69
2022/07/06 03:05:32;;;;;;;4.35;2.45;;;;;;;22.23;41.78;102524.13;5012414;28;20342;-69
2022/07/06 03:07:57;;;;;;;3.80;2.10;;;;;;;22.23;41.86;102518.81;5012994;28;20047;-69
2022/07/06 03:10:23;;;;;;;3.97;2.20;;;;;;;22.22;41.89;102513.59;5013326;28;20112;-69
2022/07/06 03:12:48;;;;;;;5.35;2.40;;;;;;;22.23;41.75;102512.66;5011965;28;20306;-69
2022/07/06 03:15:13;;;;;;;4.00;2.37;;;;;;;22.23;41.95;102524.13;5012985;28;20095;-69
2022/07/06 03:17:38;;;;;;;3.60;2.30;;;;;;;22.22;41.99;102522.44;5013349;28;20303;-68
2022/07/06 03:20:05;;;;;;;5.50;2.50;;;;;;;22.22;41.82;102529.53;5012214;28;20278;-69
2022/07/06 03:22:31;;;;;;;4.03;2.40;;;;;;;22.21;41.98;102527.84;5012993;28;20260;-69
2022/07/06 03:24:56;;;;;;;3.88;2.17;;;;;;;22.20;41.95;102531.47;5011858;28;20034;-69
2022/07/06 03:27:21;;;;;;;4.10;2.10;;;;;;;22.20;42.12;102534.13;5012945;28;20018;-69
2022/07/06 03:29:47;;;;;;;3.73;2.37;;;;;;;22.18;41.98;102523.59;5013035;28;20033;-69
2022/07/06 03:32:12;;;;;;;4.63;2.30;;;;;;;22.18;41.80;102526.25;5012186;28;20853;-69
2022/07/06 03:34:37;;;;;;;3.83;2.37;;;;;;;22.17;42.22;102529.03;5013138;28;20271;-69
2022/07/06 03:37:03;;;;;;;4.57;2.50;;;;;;;22.19;41.88;102527.09;5012616;28;20299;-70
2022/07/06 03:39:28;;;;;;;3.85;2.40;;;;;;;22.17;42.04;102529.88;5012461;28;20029;-70
2022/07/06 03:41:53;;;;;;;4.73;2.50;;;;;;;22.18;41.61;102522.75;5012712;28;20022;-70
2022/07/06 03:44:19;;;;;;;4.55;2.30;;;;;;;22.17;41.97;102529.88;5012961;28;20326;-70
2022/07/06 03:46:44;;;;;;;4.07;2.33;;;;;;;22.15;42.00;102529.13;5013020;28;20355;-69
2022/07/06 03:49:09;;;;;;;3.97;2.20;;;;;;;22.17;41.69;102527.22;5013042;28;20310;-70
2022/07/06 03:51:34;;;;;;;4.10;2.40;;;;;;;22.17;42.09;102531.69;5013037;28;20286;-69
2022/07/06 03:54:00;;;;;;;4.28;2.22;;;;;;;22.17;42.31;102535.16;5011965;28;20097;-69
2022/07/06 03:56:28;;;;;;;4.20;2.30;;;;;;;22.15;41.85;102528.28;5012792;28;20029;-70
2022/07/06 03:58:54;;;;;;;4.05;2.15;;;;;;;22.16;42.04;102529.97;5012758;28;20362;-69
2022/07/06 04:01:19;;;;;;;4.00;2.20;;;;;;;22.16;42.04;102530.84;5012261;28;20111;-69
2022/07/06 04:03:45;;;;;;;4.55;2.42;;;;;;;22.15;42.10;102523.81;5012938;28;20077;-69
2022/07/06 04:06:10;;;;;;;3.60;2.25;;;;;;;22.14;41.83;102526.59;5012364;28;20040;-69
2022/07/06 04:08:35;;;;;;;3.90;2.40;;;;;;;22.15;41.97;102530.94;5011697;28;20448;-70
2022/07/06 04:11:01;;;;;;;3.58;2.35;;;;;;;22.14;42.25;102529.25;5012252;28;20040;-70
2022/07/06 04:13:26;;;;;;;3.90;2.10;;;;;;;22.13;42.20;102520.44;5012444;28;20033;-70
2022/07/06 04:15:51;;;;;;;4.00;2.30;;;;;;;22.12;42.06;102518.72;5011769;28;20030;-70
2022/07/06 04:18:17;;;;;;;4.13;2.37;;;;;;;22.14;42.17;102529.25;5012625;28;20631;-70
2022/07/06 04:20:42;;;;;;;4.50;2.60;;;;;;;22.11;42.24;102517.03;5012669;28;20295;-70
2022/07/06 04:23:07;;;;;;;5.03;2.38;;;;;;;22.13;42.12;102516.91;5011543;28;20488;-70
2022/07/06 04:25:33;;;;;;;4.50;2.40;;;;;;;22.13;42.01;102508.94;5016271;28;20026;-70
2022/07/06 04:27:59;;;;;;;3.65;2.10;;;;;;;22.13;42.10;102506.28;5015842;28;20060;-70
2022/07/06 04:30:24;;;;;;;4.13;2.30;;;;;;;22.13;41.96;102508.94;5015492;28;20117;-70
2022/07/06 04:32:49;;;;;;;3.97;2.30;;;;;;;22.11;42.26;102511.72;5016065;28;20025;-70
2022/07/06 04:35:15;;;;;;;3.70;2.30;;;;;;;22.12;42.34;102509.94;5015287;28;20025;-69
2022/07/06 04:37:40;;;;;;;3.90;2.40;;;;;;;22.13;42.05;102508.94;5016100;28;20095;-69
2022/07/06 04:40:06;;;;;;;4.93;2.22;;;;;;;22.13;42.18;102506.28;5015780;28;20466;-70
2022/07/06 04:42:31;;;;;;;4.35;2.50;;;;;;;22.12;42.08;102510.78;5015116;28;20025;-70
2022/07/06 04:44:56;;;;;;;4.10;2.10;;;;;;;22.12;42.52;102508.13;5015745;28;20374;-70
2022/07/06 04:47:21;;;;;;;4.07;2.50;;;;;;;22.12;42.14;102510.78;5016094;28;20271;-70
2022/07/06 04:49:47;;;;;;;3.58;2.20;;;;;;;22.11;42.08;102503.75;5015120;28;20274;-70
2022/07/06 04:52:12;;;;;;;3.53;2.30;;;;;;;22.13;42.29;102511.59;5015363;28;20125;-70
2022/07/06 04:54:37;;;;;;;4.07;2.38;;;;;;;22.12;42.37;102509.94;5015789;28;20357;-70
2022/07/06 04:57:03;;;;;;;3.93;2.40;;;;;;;22.12;42.01;102513.41;5014607;28;20033;-70
2022/07/06 04:59:28;;;;;;;4.07;2.30;;;;;;;22.10;42.09;102507.38;5015713;28;20283;-70
2022/07/06 05:01:54;;;;;;;3.63;2.23;;;;;;;22.12;42.23;102512.59;5015368;28;20033;-70
2022/07/06 05:04:19;;;;;;;4.20;2.27;;;;;;;22.13;42.45;102514.25;5014912;28;20022;-70
2022/07/06 05:06:45;;;;;;;3.78;2.20;;;;;;;22.13;42.32;102519.56;5015488;28;20279;-70
2022/07/06 05:09:11;;;;;;;3.75;2.20;;;;;;;22.13;42.16;102516.91;5015193;28;20032;-70
2022/07/06 05:11:37;;;;;;;5.15;2.58;;;;;;;22.14;42.48;102518.63;5014608;28;20112;-70
2022/07/06 05:14:02;;;;;;;4.63;2.10;;;;;;;22.13;42.65;102525.75;5014961;28;20462;-70
2022/07/06 05:16:28;;;;;;;3.83;2.30;;;;;;;22.14;42.31;102530.09;5015250;28;20080;-70
2022/07/06 05:18:53;;;;;;;3.80;2.33;;;;;;;22.15;42.51;102523.00;5014326;28;20087;-70
2022/07/06 05:21:18;;;;;;;3.97;2.10;;;;;;;22.16;42.98;102537.94;5015459;28;20053;-70
2022/07/06 05:23:43;;;;;;;4.85;2.50;;;;;;;22.16;42.83;102530.84;5015296;28;20291;-70
2022/07/06 05:26:09;;;;;;;3.77;2.13;;;;;;;22.16;42.67;102533.50;5014004;28;20070;-70
2022/07/06 05:28:34;;;;;;;3.97;2.30;;;;;;;22.16;42.99;102541.47;5015237;28;20755;-70
2022/07/06 05:30:59;;;;;;;3.90;2.20;;;;;;;22.16;42.85;102535.28;5014925;28;20512;-70
2022/07/06 05:33:27;;;;;;;3.38;2.00;;;;;;;22.16;42.77;102528.19;5014302;28;20385;-71
2022/07/06 05:35:52;;;;;;;3.92;1.98;;;;;;;22.19;43.31;102532.41;5014336;28;20045;-71
2022/07/06 05:38:18;;;;;;;4.65;2.10;;;;;;;22.18;43.25;102533.38;5015007;28;20037;-71
2022/07/06 05:40:43;;;;;;;3.60;1.90;;;;;;;22.19;43.02;102532.41;5013993;28;20014;-71
2022/07/06 05:43:09;;;;;;;4.35;1.92;;;;;;;22.19;43.27;102532.41;5014409;28;20030;-71
2022/07/06 05:45:35;;;;;;;3.83;2.15;;;;;;;22.20;43.20;102534.13;5014228;28;20026;-71
2022/07/06 05:50:44;;;;;;;3.78;2.10;;;;;;;22.21;43.16;102538.47;5014847;28;20028;-71
2022/07/06 05:53:09;;;;;;;5.03;2.55;;;;;;;22.21;43.00;102541.13;5013450;28;20034;-71
2022/07/06 05:55:35;;;;;;;4.95;2.30;;;;;;;22.01;43.18;102538.09;5014422;28;20022;-71
2022/07/06 05:58:00;;;;;;;4.68;2.22;;;;;;;21.70;43.97;102540.25;5014148;28;20092;-71
2022/07/06 06:00:26;;;;;;;6.07;3.33;;;;;;;21.37;45.09;102541.59;5013705;28;20041;-70
2022/07/06 06:02:52;;;;;;;5.80;2.55;;;;;;;21.11;45.26;102551.34;5014070;28;20022;-68
2022/07/06 06:05:18;;;;;;;4.90;1.85;;;;;;;20.88;45.34;102550.22;5014091;28;20041;-73
2022/07/06 06:07:46;;;;;;;3.92;1.90;;;;;;;20.72;46.24;102552.19;5013380;28;20105;-72
2022/07/06 06:10:12;;;;;;;4.15;1.58;;;;;;;20.56;46.72;102549.66;5013800;28;20069;-72
2022/07/06 06:12:39;;;;;;;3.85;1.80;;;;;;;20.42;47.36;102547.91;5014298;28;20054;-70
2022/07/06 06:15:05;;;;;;;3.55;1.65;;;;;;;20.34;47.39;102551.03;5013254;28;20432;-72
2022/07/06 06:17:30;;;;;;;5.13;1.80;;;;;;;20.25;47.65;102552.47;5014181;28;20380;-69
2022/07/06 06:19:56;;;;;;;3.83;1.58;;;;;;;20.18;47.91;102552.97;5013712;28;20104;-70
2022/07/06 06:22:22;;;;;;;4.85;1.70;;;;;;;20.10;48.23;102551.63;5013152;28;20477;-71
2022/07/06 06:24:47;;;;;;;3.55;1.48;;;;;;;20.04;48.41;102559.97;5013645;28;20038;-70
2022/07/06 06:27:13;;;;;;;3.58;1.67;;;;;;;19.98;48.10;102549.78;5013668;28;20363;-69
2022/07/06 06:29:38;;;;;;;3.40;1.30;;;;;;;19.94;48.66;102551.75;5012967;28;20432;-70
2022/07/06 06:32:05;;;;;;;2.75;1.50;;;;;;;19.89;48.61;102545.91;5013586;28;20037;-66
2022/07/06 06:34:31;;;;;;;4.00;1.40;;;;;;;19.83;49.09;102546.28;5014052;28;20057;-68
2022/07/06 06:36:56;;;;;;;2.83;1.42;;;;;;;19.78;50.19;102553.66;5012593;28;20042;-69
2022/07/06 06:39:21;;;;;;;5.57;1.50;;;;;;;19.69;50.35;102554.19;5013791;28;20018;-66
2022/07/06 06:41:46;;;;;;;5.17;1.70;;;;;;;19.60;50.31;102554.72;5013011;28;20263;-67
2022/07/06 06:44:12;;;;;;;5.43;1.70;;;;;;;19.49;51.31;102550.94;5013474;28;20275;-67
2022/07/06 06:46:38;;;;;;;4.77;1.67;;;;;;;19.40;51.05;102555.00;5013104;28;20069;-67
2022/07/06 06:49:03;;;;;;;3.28;1.25;;;;;;;19.31;51.72;102555.56;5012546;28;20275;-66
2022/07/06 06:51:28;;;;;;;3.20;1.42;;;;;;;19.24;50.97;102553.38;5013485;28;20057;-69
2022/07/06 06:53:53;;;;;;;5.53;1.52;;;;;;;19.18;51.89;102558.09;5013018;28;20093;-67
2022/07/06 06:56:19;;;;;;;3.33;1.60;;;;;;;19.09;51.50;102560.38;5012482;28;20046;-67
2022/07/06 06:58:44;;;;;;;4.47;1.67;;;;;;;18.96;52.53;102565.53;5013633;28;20279;-67
2022/07/06 07:01:09;;;;;;;4.93;1.70;;;;;;;18.83;53.11;102565.34;5013153;28;20037;-68
2022/07/06 07:03:35;;;;;;;4.57;1.50;;;;;;;18.72;51.51;102558.03;5012779;28;20029;-68
2022/07/06 07:06:00;;;;;;;4.80;1.40;;;;;;;18.64;51.21;102568.19;5012888;28;20294;-68
2022/07/06 07:08:25;;;;;;;4.78;1.52;;;;;;;18.60;51.57;102564.88;5013221;28;20026;-65
2022/07/06 07:10:51;;;;;;;3.67;1.27;;;;;;;18.63;51.08;102561.22;5012551;28;20022;-68
2022/07/06 07:13:16;;;;;;;5.50;1.40;;;;;;;18.74;51.54;102569.38;5013473;28;20385;-69
2022/07/06 07:15:41;;;;;;;2.63;1.13;;;;;;;18.86;50.63;102565.22;5013363;28;20029;-68
2022/07/06 07:18:06;;;;;;;5.20;1.20;;;;;;;18.99;49.84;102573.28;5012102;28;20060;-70
2022/07/06 07:20:33;;;;;;;2.57;1.00;;;;;;;19.12;48.64;102566.38;5013102;28;20287;-68
2022/07/06 07:22:59;;;;;;;2.55;0.93;;;;;;;19.24;47.67;102570.06;5012715;28;20275;-72
2022/07/06 07:25:25;;;;;;;1.65;0.80;;;;;;;19.30;46.75;102563.59;5012491;28;20033;-71
2022/07/06 07:27:50;;;;;;;3.35;0.85;;;;;;;19.38;47.61;102570.09;5012908;28;20466;-67
2022/07/06 07:30:15;;;;;;;1.20;0.70;;;;;;;19.45;46.05;102569.75;5013306;28;20036;-68
2022/07/06 07:32:41;;;;;;;2.47;0.82;;;;;;;19.54;46.79;102563.91;5012394;28;20026;-70
2022/07/06 07:35:06;;;;;;;1.23;0.60;;;;;;;19.59;46.60;102572.41;5012702;28;20093;-76
2022/07/06 07:37:32;;;;;;;1.63;0.80;;;;;;;19.64;46.02;102572.97;5012847;28;20050;-68
2022/07/06 07:39:57;;;;;;;1.43;0.60;;;;;;;19.70;45.08;102575.25;5012248;28;20076;-71
2022/07/06 07:42:23;;;;;;;2.10;0.80;;;;;;;19.77;44.95;102567.81;5013099;28;20747;-68
2022/07/06 07:44:48;;;;;;;1.37;0.57;;;;;;;19.82;43.98;102575.47;5013060;28;20462;-74
2022/07/06 07:47:13;;;;;;;2.67;0.60;;;;;;;19.83;43.76;102566.59;5011897;28;20263;-68
2022/07/06 07:49:39;;;;;;;2.25;0.70;;;;;;;19.88;43.80;102570.66;5013083;28;20357;-72
2022/07/06 07:52:04;;;;;;;2.42;0.68;;;;;;;19.91;44.25;102567.81;5012248;28;20026;-69
2022/07/06 07:54:29;;;;;;;1.15;0.50;;;;;;;19.94;42.70;102572.91;5012979;28;20119;-74
2022/07/06 07:56:55;;;;;;;1.38;0.60;;;;;;;19.97;42.22;102563.94;5012723;28;20487;-70
2022/07/06 07:59:20;;;;;;;2.28;0.60;;;;;;;20.04;42.32;102573.19;5014090;28;20429;-69
2022/07/06 08:01:45;;;;;;;1.77;0.70;;;;;;;20.06;43.10;102567.81;5016654;28;20448;-72
2022/07/06 08:04:10;;;;;;;1.20;0.53;;;;;;;20.10;43.03;102567.50;5016205;28;20271;-78
2022/07/06 08:06:36;;;;;;;1.40;0.75;;;;;;;20.13;42.07;102561.19;5015804;28;20275;-72
2022/07/06 08:09:03;;;;;;;1.45;0.57;;;;;;;20.15;41.43;102555.81;5016485;28;20362;-72
2022/07/06 08:11:28;;;;;;;1.75;0.52;;;;;;;20.14;40.69;102546.16;5016459;28;20145;-68
2022/07/06 08:13:54;;;;;;;1.73;0.60;;;;;;;20.14;42.16;102543.50;5015431;28;20036;-68
2022/07/06 08:16:19;;;;;;;2.65;0.70;;;;;;;20.10;43.10;102551.63;5016540;28;20042;-68
2022/07/06 08:18:44;;;;;;;1.48;0.60;;;;;;;20.07;42.10;102549.19;5016729;28;20110;-69
2022/07/06 08:21:11;;;;;;;2.00;0.70;;;;;;;20.04;41.37;102546.72;5015173;28;20457;-66
2022/07/06 08:23:36;;;;;;;0.90;0.50;;;;;;;20.00;41.90;102557.63;5016636;28;20279;-73
2022/07/06 08:26:02;;;;;;;2.47;0.70;;;;;;;20.01;43.36;102556.66;5015957;28;20029;-68
2022/07/06 08:28:28;;;;;;;1.98;0.80;;;;;;;20.03;43.78;102558.28;5015667;28;20032;-71
2022/07/06 08:30:54;;;;;;;1.70;0.60;;;;;;;20.08;43.83;102555.34;5015976;28;20097;-68
2022/07/06 08:33:20;;;;;;;1.77;1.23;;;;;;;20.16;43.80;102549.56;5016312;28;20092;-71
2022/07/06 08:35:45;;;;;;;3.13;1.00;;;;;;;20.19;44.18;102544.09;5015152;28;20100;-76
2022/07/06 08:38:10;;;;;;;3.17;1.33;;;;;;;20.15;43.74;102546.06;5016222;28;20028;-72
2022/07/06 08:40:39;;;;;;;1.67;0.60;;;;;;;20.20;42.90;102548.41;5016024;28;20026;-74
2022/07/06 08:43:05;;;;;;;1.73;0.60;;;;;;;20.19;42.89;102555.50;5015271;28;20033;-74
2022/07/06 08:45:34;;;;;;;1.33;0.60;;;;;;;20.18;41.93;102550.31;5015915;28;20046;-72
2022/07/06 08:48:04;;;;;;;2.20;0.70;;;;;;;20.13;42.95;102552.41;5015661;28;20038;-69
2022/07/06 08:50:30;;;;;;;0.50;0.40;;;;;;;20.07;42.06;102548.34;5014992;28;20032;-72
2022/07/06 08:52:56;;;;;;;4.10;0.70;;;;;;;20.04;41.58;102546.72;5015728;28;20354;-64
2022/07/06 08:55:21;;;;;;;2.22;0.60;;;;;;;20.02;42.57;102538.03;5015510;28;20045;-68
2022/07/06 08:57:47;;;;;;;2.25;0.60;;;;;;;19.99;44.27;102535.59;5015839;28;20026;-69
2022/07/06 09:00:13;;;;;;;1.48;0.57;;;;;;;20.00;44.09;102541.75;5015471;28;20030;-71
2022/07/06 09:02:40;;;;;;;1.52;0.70;;;;;;;19.98;45.17;102535.69;5015665;28;20025;-66
2022/07/06 09:05:08;;;;;;;3.13;0.70;;;;;;;19.94;43.71;102532.38;5015174;28;20470;-68
2022/07/06 09:07:34;;;;;;;4.20;0.75;;;;;;;19.90;43.04;102536.16;5015726;28;20030;-68
2022/07/06 09:10:00;;;;;;;3.72;0.80;;;;;;;19.86;44.99;102546.09;5013848;28;20061;-72
2022/07/06 09:12:28;;;;;;;2.78;0.70;;;;;;;19.83;42.63;102537.50;5015620;28;20026;-69
2022/07/06 09:14:57;;;;;;;1.38;0.50;;;;;;;19.83;43.44;102538.34;5015280;28;20021;-70
2022/07/06 09:17:27;;;;;;;2.30;0.70;;;;;;;19.87;43.90;102536.38;5014591;28;20029;-70
2022/07/06 09:19:54;;;;;;;1.70;0.68;;;;;;;19.91;43.48;102541.34;5015383;28;20022;-69
2022/07/06 09:22:31;;;;;;;2.63;0.80;;;;;;;19.98;44.30;102535.69;5015493;28;20025;-77
2022/07/06 09:25:12;;;;;;;1.83;0.60;;;;;;;20.04;45.62;102537.94;5014379;28;20382;-68
2022/07/06 09:27:39;;;;;;;1.15;0.60;;;;;;;20.11;43.82;102537.47;5015316;28;20033;-69
2022/07/06 09:30:06;;;;;;;1.08;0.60;;;;;;;20.19;45.53;102536.16;5014928;28;20025;-68
2022/07/06 09:32:38;;;;;;;2.17;0.60;;;;;;;20.25;44.99;102539.25;5014527;28;20088;-71
2022/07/06 09:35:04;;;;;;;2.65;0.65;;;;;;;20.26;44.42;102548.88;5015460;28;20496;-77
2022/07/06 09:37:29;;;;;;;2.63;0.80;;;;;;;20.28;44.26;102552.28;5015196;28;20054;-68
2022/07/06 09:39:55;;;;;;;1.75;0.60;;;;;;;20.30;43.44;102544.25;5013895;28;20128;-70
2022/07/06 09:42:26;;;;;;;1.33;0.60;;;;;;;20.29;43.83;102540.72;5014878;28;20029;-70
2022/07/06 09:44:52;;;;;;;2.83;0.70;;;;;;;20.30;43.75;102546.91;5014498;28;20284;-77
2022/07/06 09:47:17;;;;;;;1.13;0.55;;;;;;;20.23;45.17;102553.50;5015479;28;20018;-73
2022/07/06 09:49:43;;;;;;;2.65;0.75;;;;;;;20.17;45.41;102548.59;5014883;28;20018;-79
2022/07/06 09:52:10;;;;;;;2.53;0.90;;;;;;;20.15;44.27;102554.00;5013707;28;20335;-76
2022/07/06 09:54:41;;;;;;;2.97;0.73;;;;;;;20.13;44.36;102547.13;5014565;28;20029;-66
2022/07/06 09:57:07;;;;;;;1.65;0.60;;;;;;;20.13;42.93;102550.59;5014137;28;20033;-72
2022/07/06 09:59:34;;;;;;;2.92;0.75;;;;;;;20.16;45.41;102552.22;5014164;28;20049;-68
2022/07/06 10:02:02;;;;;;;2.20;0.73;;;;;;;20.18;45.31;102550.31;5014209;28;20028;-69
2022/07/06 10:04:28;;;;;;;2.17;0.70;;;;;;;20.16;45.70;102544.28;5014449;28;20026;-67
2022/07/06 10:06:55;;;;;;;1.73;0.65;;;;;;;20.16;46.43;102553.06;5013415;28;20097;-65
2022/07/06 10:09:26;;;;;;;2.60;0.70;;;;;;;20.19;43.42;102560.81;5014526;28;20377;-73
2022/07/06 10:11:56;;;;;;;2.92;0.60;;;;;;;20.24;43.16;102547.28;5014349;28;20041;-73
2022/07/06 10:14:30;;;;;;;1.40;0.60;;;;;;;20.28;44.42;102552.28;5013745;28;20022;-74
2022/07/06 10:17:02;;;;;;;2.38;0.70;;;;;;;20.37;45.48;102550.84;5014280;28;20022;-69
2022/07/06 10:19:30;;;;;;;3.17;0.75;;;;;;;20.45;45.06;102559.13;5014022;28;20022;-70
2022/07/06 10:22:06;;;;;;;2.70;0.70;;;;;;;20.49;43.13;102554.50;5012054;28;20064;-72
2022/07/06 10:24:34;;;;;;;2.40;0.50;;;;;;;20.47;43.30;102554.63;5014278;28;20026;-69
2022/07/06 10:26:59;;;;;;;2.08;0.93;;;;;;;20.47;40.79;102557.25;5013287;28;20248;-74
2022/07/06 10:29:25;;;;;;;2.60;0.65;;;;;;;20.46;41.89;102546.75;5014203;28;20022;-73
2022/07/06 10:31:51;;;;;;;2.38;0.70;;;;;;;20.46;42.87;102557.34;5013634;28;20053;-72
2022/07/06 10:34:18;;;;;;;2.00;0.80;;;;;;;20.45;41.53;102558.28;5013211;28;20029;-71
2022/07/06 10:36:47;;;;;;;2.58;0.70;;;;;;;20.45;40.22;102553.84;5013515;28;20144;-69
2022/07/06 10:41:57;;;;;;;1.92;0.60;;;;;;;20.47;43.43;102553.75;5012801;28;20032;-70
2022/07/06 10:44:24;;;;;;;1.88;0.63;;;;;;;20.47;43.70;102554.63;5013654;28;20030;-70
2022/07/06 10:46:54;;;;;;;1.65;0.52;;;;;;;20.48;42.52;102553.63;5013402;28;20053;-69
2022/07/06 10:49:20;;;;;;;2.33;0.50;;;;;;;20.47;44.78;102546.66;5012908;28;20127;-66
2022/07/06 10:51:46;;;;;;;2.28;0.60;;;;;;;20.50;43.51;102552.69;5013765;28;20028;-72
2022/07/06 10:54:12;;;;;;;2.70;0.70;;;;;;;20.52;43.61;102545.50;5013278;28;20064;-69
2022/07/06 10:56:42;;;;;;;4.65;0.60;;;;;;;20.54;44.85;102549.75;5013817;28;20045;-77
2022/07/06 10:59:15;;;;;;;3.25;0.65;;;;;;;20.52;44.14;102553.44;5013925;28;20435;-77
2022/07/06 11:02:01;;;;;;;2.50;0.70;;;;;;;20.53;43.45;102541.91;5013889;28;20026;-78
2022/07/06 11:04:31;;;;;;;2.22;0.50;;;;;;;20.60;43.50;102541.41;5013117;28;20044;-72
2022/07/06 11:07:07;;;;;;;1.77;0.52;;;;;;;20.64;43.39;102537.63;5013273;28;20105;-75
2022/07/06 11:09:32;;;;;;;1.52;0.60;;;;;;;20.70;43.48;102541.69;5012735;28;20029;-79
2022/07/06 11:11:57;;;;;;;1.53;0.53;;;;;;;20.78;41.99;102536.72;5013241;28;20026;-73
2022/07/06 11:14:23;;;;;;;1.00;0.40;;;;;;;20.83;40.92;102531.13;5013310;28;20138;-65
2022/07/06 11:16:48;;;;;;;2.47;0.68;;;;;;;20.88;43.65;102531.66;5013157;28;20274;-78
2022/07/06 11:19:18;;;;;;;2.30;0.50;;;;;;;20.91;43.49;102528.81;5014247;28;20103;-75
2022/07/06 11:21:45;;;;;;;2.08;0.60;;;;;;;20.95;41.46;102535.63;5013642;28;20037;-71
2022/07/06 11:24:13;;;;;;;1.60;0.57;;;;;;;20.95;38.79;102532.97;5012251;28;20033;-76